sensor_id;sensor_type;location;lat;lon;timestamp;temperature;humidity
9450;DHT22;4763;48.370;10.874;2023-03-26T00:00:53;6.80;99.90
9450;DHT22;4763;48.370;10.874;2023-03-26T00:03:41;6.70;99.90
9450;DHT22;4763;48.370;10.874;2023-03-26T00:06:31;6.70;99.90
9450;DHT22;4763;48.370;10.874;2023-03-26T00:09:21;6.70;99.90
9450;DHT22;4763;48.370;10.874;2023-03-26T00:12:08;6.70;99.90
9450;DHT22;4763;48.370;10.874;2023-03-26T00:14:55;6.70;99.90
9450;DHT22;4763;48.370;10.874;2023-03-26T00:17:42;6.60;99.90
9450;DHT22;4763;48.370;10.874;2023-03-26T00:20:31;6.70;99.90
9450;DHT22;4763;48.370;10.874;2023-03-26T00:23:18;6.80;99.90
9450;DHT22;4763;48.370;10.874;2023-03-26T00:26:07;6.80;99.90
9450;DHT22;4763;48.370;10.874;2023-03-26T00:28:55;6.80;99.90
9450;DHT22;4763;48.370;10.874;2023-03-26T00:31:42;6.80;99.90
9450;DHT22;4763;48.370;10.874;2023-03-26T00:34:30;6.90;99.90
9450;DHT22;4763;48.370;10.874;2023-03-26T00:37:19;6.90;99.90
9450;DHT22;4763;48.370;10.874;2023-03-26T00:40:11;6.80;99.90
9450;DHT22;4763;48.370;10.874;2023-03-26T00:43:00;6.80;99.90
9450;DHT22;4763;48.370;10.874;2023-03-26T00:45:55;6.90;99.90
9450;DHT22;4763;48.370;10.874;2023-03-26T00:48:42;6.90;99.90
9450;DHT22;4763;48.370;10.874;2023-03-26T00:51:29;6.90;99.90
9450;DHT22;4763;48.370;10.874;2023-03-26T00:54:16;6.90;99.90
9450;DHT22;4763;48.370;10.874;2023-03-26T00:57:03;6.80;99.90
9450;DHT22;4763;48.370;10.874;2023-03-26T00:59:52;6.80;99.90
9450;DHT22;4763;48.370;10.874;2023-03-26T01:02:40;6.80;99.90
9450;DHT22;4763;48.370;10.874;2023-03-26T01:05:42;6.80;99.90
9450;DHT22;4763;48.370;10.874;2023-03-26T01:08:32;6.90;99.90
9450;DHT22;4763;48.370;10.874;2023-03-26T01:11:22;6.90;99.90
9450;DHT22;4763;48.370;10.874;2023-03-26T01:14:13;6.80;99.90
9450;DHT22;4763;48.370;10.874;2023-03-26T01:17:04;6.70;99.90
9450;DHT22;4763;48.370;10.874;2023-03-26T01:19:57;6.70;99.90
9450;DHT22;4763;48.370;10.874;2023-03-26T01:23:01;6.60;99.90
9450;DHT22;4763;48.370;10.874;2023-03-26T01:25:55;6.60;99.90
9450;DHT22;4763;48.370;10.874;2023-03-26T01:28:47;6.50;99.90
9450;DHT22;4763;48.370;10.874;2023-03-26T01:31:38;6.30;99.90
9450;DHT22;4763;48.370;10.874;2023-03-26T01:34:34;6.20;99.90
9450;DHT22;4763;48.370;10.874;2023-03-26T01:37:27;6.20;99.90
9450;DHT22;4763;48.370;10.874;2023-03-26T01:40:22;6.10;99.90
9450;DHT22;4763;48.370;10.874;2023-03-26T01:43:20;6.00;99.90
9450;DHT22;4763;48.370;10.874;2023-03-26T01:46:12;6.00;99.90
9450;DHT22;4763;48.370;10.874;2023-03-26T01:49:01;5.90;99.90
9450;DHT22;4763;48.370;10.874;2023-03-26T01:51:50;5.90;99.90
9450;DHT22;4763;48.370;10.874;2023-03-26T01:54:37;5.80;99.90
9450;DHT22;4763;48.370;10.874;2023-03-26T01:57:33;5.90;99.90
9450;DHT22;4763;48.370;10.874;2023-03-26T02:00:26;6.00;99.90
9450;DHT22;4763;48.370;10.874;2023-03-26T02:03:21;6.10;99.90
9450;DHT22;4763;48.370;10.874;2023-03-26T02:06:15;6.20;99.90
9450;DHT22;4763;48.370;10.874;2023-03-26T02:09:05;6.20;99.90
9450;DHT22;4763;48.370;10.874;2023-03-26T02:11:54;6.20;99.90
9450;DHT22;4763;48.370;10.874;2023-03-26T02:14:42;6.20;99.90
9450;DHT22;4763;48.370;10.874;2023-03-26T02:17:31;6.20;99.90
9450;DHT22;4763;48.370;10.874;2023-03-26T02:20:19;6.20;99.90
9450;DHT22;4763;48.370;10.874;2023-03-26T02:23:06;6.10;99.90
9450;DHT22;4763;48.370;10.874;2023-03-26T02:25:53;6.20;99.90
9450;DHT22;4763;48.370;10.874;2023-03-26T02:28:40;6.20;99.90
9450;DHT22;4763;48.370;10.874;2023-03-26T02:31:27;6.20;99.90
9450;DHT22;4763;48.370;10.874;2023-03-26T02:34:16;6.20;99.90
9450;DHT22;4763;48.370;10.874;2023-03-26T02:37:03;6.30;99.90
9450;DHT22;4763;48.370;10.874;2023-03-26T02:39:50;6.30;99.90
9450;DHT22;4763;48.370;10.874;2023-03-26T02:42:38;6.40;99.90
9450;DHT22;4763;48.370;10.874;2023-03-26T02:45:25;6.30;99.90
9450;DHT22;4763;48.370;10.874;2023-03-26T02:48:13;6.30;99.90
9450;DHT22;4763;48.370;10.874;2023-03-26T02:51:02;6.20;99.90
9450;DHT22;4763;48.370;10.874;2023-03-26T02:53:51;6.30;99.90
9450;DHT22;4763;48.370;10.874;2023-03-26T02:56:39;6.30;99.90
9450;DHT22;4763;48.370;10.874;2023-03-26T02:59:26;6.30;99.90
9450;DHT22;4763;48.370;10.874;2023-03-26T03:02:14;6.20;99.90
9450;DHT22;4763;48.370;10.874;2023-03-26T03:05:01;6.20;99.90
9450;DHT22;4763;48.370;10.874;2023-03-26T03:07:52;6.10;99.90
9450;DHT22;4763;48.370;10.874;2023-03-26T03:10:43;6.10;99.90
9450;DHT22;4763;48.370;10.874;2023-03-26T03:13:30;6.00;99.90
9450;DHT22;4763;48.370;10.874;2023-03-26T03:16:17;6.10;99.90
9450;DHT22;4763;48.370;10.874;2023-03-26T03:19:04;6.00;99.90
9450;DHT22;4763;48.370;10.874;2023-03-26T03:21:51;6.00;99.90
9450;DHT22;4763;48.370;10.874;2023-03-26T03:24:40;6.00;99.90
9450;DHT22;4763;48.370;10.874;2023-03-26T03:27:28;6.00;99.90
9450;DHT22;4763;48.370;10.874;2023-03-26T03:30:16;5.90;99.90
9450;DHT22;4763;48.370;10.874;2023-03-26T03:33:03;6.10;99.90
9450;DHT22;4763;48.370;10.874;2023-03-26T03:35:50;6.00;99.90
9450;DHT22;4763;48.370;10.874;2023-03-26T03:38:38;6.10;99.90
9450;DHT22;4763;48.370;10.874;2023-03-26T03:41:27;6.10;99.90
9450;DHT22;4763;48.370;10.874;2023-03-26T03:44:14;6.00;99.90
9450;DHT22;4763;48.370;10.874;2023-03-26T03:47:02;6.00;99.90
9450;DHT22;4763;48.370;10.874;2023-03-26T03:49:49;6.00;99.90
9450;DHT22;4763;48.370;10.874;2023-03-26T03:52:36;5.90;99.90
9450;DHT22;4763;48.370;10.874;2023-03-26T03:55:23;5.90;99.90
9450;DHT22;4763;48.370;10.874;2023-03-26T03:58:14;6.00;99.90
9450;DHT22;4763;48.370;10.874;2023-03-26T04:01:06;6.00;99.90
9450;DHT22;4763;48.370;10.874;2023-03-26T04:03:53;5.90;99.90
9450;DHT22;4763;48.370;10.874;2023-03-26T04:06:40;5.90;99.90
9450;DHT22;4763;48.370;10.874;2023-03-26T04:09:27;5.80;99.90
9450;DHT22;4763;48.370;10.874;2023-03-26T04:12:15;5.90;99.90
9450;DHT22;4763;48.370;10.874;2023-03-26T04:15:04;5.90;99.90
9450;DHT22;4763;48.370;10.874;2023-03-26T04:17:51;5.80;99.90
9450;DHT22;4763;48.370;10.874;2023-03-26T04:20:39;5.80;99.90
9450;DHT22;4763;48.370;10.874;2023-03-26T04:23:31;5.80;99.90
9450;DHT22;4763;48.370;10.874;2023-03-26T04:26:19;5.80;99.90
9450;DHT22;4763;48.370;10.874;2023-03-26T04:29:07;5.80;99.90
9450;DHT22;4763;48.370;10.874;2023-03-26T04:31:58;5.80;99.90
9450;DHT22;4763;48.370;10.874;2023-03-26T04:34:51;5.80;99.90
9450;DHT22;4763;48.370;10.874;2023-03-26T04:37:40;5.70;99.90
9450;DHT22;4763;48.370;10.874;2023-03-26T04:40:29;5.70;99.90
9450;DHT22;4763;48.370;10.874;2023-03-26T04:43:16;5.70;99.90
9450;DHT22;4763;48.370;10.874;2023-03-26T04:46:03;5.70;99.90
9450;DHT22;4763;48.370;10.874;2023-03-26T04:48:53;5.70;99.90
9450;DHT22;4763;48.370;10.874;2023-03-26T04:51:40;5.70;99.90
9450;DHT22;4763;48.370;10.874;2023-03-26T04:54:29;5.70;99.90
9450;DHT22;4763;48.370;10.874;2023-03-26T04:57:19;5.70;99.90
9450;DHT22;4763;48.370;10.874;2023-03-26T05:00:08;5.80;99.90
9450;DHT22;4763;48.370;10.874;2023-03-26T05:02:59;5.80;99.90
9450;DHT22;4763;48.370;10.874;2023-03-26T05:05:48;5.80;99.90
9450;DHT22;4763;48.370;10.874;2023-03-26T05:08:36;5.80;99.90
9450;DHT22;4763;48.370;10.874;2023-03-26T05:11:23;5.80;99.90
9450;DHT22;4763;48.370;10.874;2023-03-26T05:14:10;5.80;99.90
9450;DHT22;4763;48.370;10.874;2023-03-26T05:16:57;5.80;99.90
9450;DHT22;4763;48.370;10.874;2023-03-26T05:19:44;5.80;99.90
9450;DHT22;4763;48.370;10.874;2023-03-26T05:22:33;6.00;99.90
9450;DHT22;4763;48.370;10.874;2023-03-26T05:25:21;6.10;99.90
9450;DHT22;4763;48.370;10.874;2023-03-26T05:28:08;6.10;99.90
9450;DHT22;4763;48.370;10.874;2023-03-26T05:30:56;6.10;99.90
9450;DHT22;4763;48.370;10.874;2023-03-26T05:33:43;6.10;99.90
9450;DHT22;4763;48.370;10.874;2023-03-26T05:36:31;6.20;99.90
9450;DHT22;4763;48.370;10.874;2023-03-26T05:39:19;6.20;99.90
9450;DHT22;4763;48.370;10.874;2023-03-26T05:42:10;6.20;99.90
9450;DHT22;4763;48.370;10.874;2023-03-26T05:44:57;6.20;99.90
9450;DHT22;4763;48.370;10.874;2023-03-26T05:47:44;6.30;99.90
9450;DHT22;4763;48.370;10.874;2023-03-26T05:50:32;6.30;99.90
9450;DHT22;4763;48.370;10.874;2023-03-26T05:53:20;6.50;99.90
9450;DHT22;4763;48.370;10.874;2023-03-26T05:56:10;6.60;99.90
9450;DHT22;4763;48.370;10.874;2023-03-26T05:58:57;6.50;99.90
9450;DHT22;4763;48.370;10.874;2023-03-26T06:01:44;6.60;99.90
9450;DHT22;4763;48.370;10.874;2023-03-26T06:04:32;6.60;99.90
9450;DHT22;4763;48.370;10.874;2023-03-26T06:07:20;6.60;99.90
9450;DHT22;4763;48.370;10.874;2023-03-26T06:10:08;6.70;99.90
9450;DHT22;4763;48.370;10.874;2023-03-26T06:12:56;6.70;99.90
9450;DHT22;4763;48.370;10.874;2023-03-26T06:15:43;6.70;99.90
9450;DHT22;4763;48.370;10.874;2023-03-26T06:18:30;6.80;99.90
9450;DHT22;4763;48.370;10.874;2023-03-26T06:21:17;6.90;99.90
9450;DHT22;4763;48.370;10.874;2023-03-26T06:24:05;6.90;99.90
9450;DHT22;4763;48.370;10.874;2023-03-26T06:26:52;7.00;99.90
9450;DHT22;4763;48.370;10.874;2023-03-26T06:29:41;7.00;99.90
9450;DHT22;4763;48.370;10.874;2023-03-26T06:32:28;7.10;99.90
9450;DHT22;4763;48.370;10.874;2023-03-26T06:35:15;7.10;99.90
9450;DHT22;4763;48.370;10.874;2023-03-26T06:38:02;7.10;99.90
9450;DHT22;4763;48.370;10.874;2023-03-26T06:40:49;7.10;99.90
9450;DHT22;4763;48.370;10.874;2023-03-26T06:43:36;7.10;99.90
9450;DHT22;4763;48.370;10.874;2023-03-26T06:46:25;7.10;99.90
9450;DHT22;4763;48.370;10.874;2023-03-26T06:49:12;7.20;99.90
9450;DHT22;4763;48.370;10.874;2023-03-26T06:51:59;7.20;99.90
9450;DHT22;4763;48.370;10.874;2023-03-26T06:54:47;7.20;99.90
9450;DHT22;4763;48.370;10.874;2023-03-26T06:57:36;7.20;99.90
9450;DHT22;4763;48.370;10.874;2023-03-26T07:00:23;7.20;99.90
9450;DHT22;4763;48.370;10.874;2023-03-26T07:03:12;7.30;99.90
9450;DHT22;4763;48.370;10.874;2023-03-26T07:05:59;7.20;99.90
9450;DHT22;4763;48.370;10.874;2023-03-26T07:08:47;7.20;99.90
9450;DHT22;4763;48.370;10.874;2023-03-26T07:11:34;7.20;99.90
9450;DHT22;4763;48.370;10.874;2023-03-26T07:14:22;7.10;99.90
9450;DHT22;4763;48.370;10.874;2023-03-26T07:17:10;7.20;99.90
9450;DHT22;4763;48.370;10.874;2023-03-26T07:19:58;7.20;99.90
9450;DHT22;4763;48.370;10.874;2023-03-26T07:22:46;7.20;99.90
9450;DHT22;4763;48.370;10.874;2023-03-26T07:25:34;7.10;99.90
9450;DHT22;4763;48.370;10.874;2023-03-26T07:28:24;7.10;99.90
9450;DHT22;4763;48.370;10.874;2023-03-26T07:31:24;7.10;99.90
9450;DHT22;4763;48.370;10.874;2023-03-26T07:34:21;7.10;99.90
9450;DHT22;4763;48.370;10.874;2023-03-26T07:37:22;7.10;99.90
9450;DHT22;4763;48.370;10.874;2023-03-26T07:40:19;7.10;99.90
9450;DHT22;4763;48.370;10.874;2023-03-26T07:43:22;7.00;99.90
9450;DHT22;4763;48.370;10.874;2023-03-26T07:46:13;7.00;99.90
9450;DHT22;4763;48.370;10.874;2023-03-26T07:49:01;7.00;99.90
9450;DHT22;4763;48.370;10.874;2023-03-26T07:51:49;7.10;99.90
9450;DHT22;4763;48.370;10.874;2023-03-26T07:54:38;7.10;99.90
9450;DHT22;4763;48.370;10.874;2023-03-26T07:57:34;7.10;99.90
9450;DHT22;4763;48.370;10.874;2023-03-26T08:00:29;7.10;99.90
9450;DHT22;4763;48.370;10.874;2023-03-26T08:03:30;7.10;99.90
9450;DHT22;4763;48.370;10.874;2023-03-26T08:06:26;7.10;99.90
9450;DHT22;4763;48.370;10.874;2023-03-26T08:09:18;7.20;99.90
9450;DHT22;4763;48.370;10.874;2023-03-26T08:12:17;7.20;99.90
9450;DHT22;4763;48.370;10.874;2023-03-26T08:15:13;7.20;99.90
9450;DHT22;4763;48.370;10.874;2023-03-26T08:18:14;7.20;99.90
9450;DHT22;4763;48.370;10.874;2023-03-26T08:21:14;7.20;99.90
9450;DHT22;4763;48.370;10.874;2023-03-26T08:24:09;7.30;99.90
9450;DHT22;4763;48.370;10.874;2023-03-26T08:27:05;7.20;99.90
9450;DHT22;4763;48.370;10.874;2023-03-26T08:29:58;7.30;99.90
9450;DHT22;4763;48.370;10.874;2023-03-26T08:32:51;7.20;99.90
9450;DHT22;4763;48.370;10.874;2023-03-26T08:35:40;7.20;99.90
9450;DHT22;4763;48.370;10.874;2023-03-26T08:38:27;7.20;99.90
9450;DHT22;4763;48.370;10.874;2023-03-26T08:45:11;7.20;99.90
9450;DHT22;4763;48.370;10.874;2023-03-26T08:48:28;7.20;99.90
9450;DHT22;4763;48.370;10.874;2023-03-26T08:51:38;7.30;99.90
9450;DHT22;4763;48.370;10.874;2023-03-26T08:54:53;7.30;99.90
9450;DHT22;4763;48.370;10.874;2023-03-26T08:58:02;7.30;99.90
9450;DHT22;4763;48.370;10.874;2023-03-26T09:01:20;7.30;99.90
9450;DHT22;4763;48.370;10.874;2023-03-26T09:04:43;7.20;99.90
9450;DHT22;4763;48.370;10.874;2023-03-26T09:11:34;7.30;99.90
9450;DHT22;4763;48.370;10.874;2023-03-26T09:14:50;7.30;99.90
9450;DHT22;4763;48.370;10.874;2023-03-26T09:18:25;7.20;99.90
9450;DHT22;4763;48.370;10.874;2023-03-26T09:21:36;7.20;99.90
9450;DHT22;4763;48.370;10.874;2023-03-26T09:24:44;7.30;99.90
9450;DHT22;4763;48.370;10.874;2023-03-26T09:27:39;7.30;99.90
9450;DHT22;4763;48.370;10.874;2023-03-26T09:30:49;7.30;99.90
9450;DHT22;4763;48.370;10.874;2023-03-26T09:34:02;7.30;99.90
9450;DHT22;4763;48.370;10.874;2023-03-26T09:36:54;7.20;99.90
9450;DHT22;4763;48.370;10.874;2023-03-26T09:39:52;7.20;99.90
9450;DHT22;4763;48.370;10.874;2023-03-26T09:42:43;7.20;99.90
9450;DHT22;4763;48.370;10.874;2023-03-26T09:45:43;7.20;99.90
9450;DHT22;4763;48.370;10.874;2023-03-26T09:49:01;7.20;99.90
9450;DHT22;4763;48.370;10.874;2023-03-26T09:52:04;7.30;99.90
9450;DHT22;4763;48.370;10.874;2023-03-26T09:55:03;7.30;99.90
9450;DHT22;4763;48.370;10.874;2023-03-26T10:01:29;7.30;99.90
9450;DHT22;4763;48.370;10.874;2023-03-26T10:04:41;7.40;99.90
9450;DHT22;4763;48.370;10.874;2023-03-26T10:07:44;7.50;99.90
9450;DHT22;4763;48.370;10.874;2023-03-26T10:10:41;7.60;99.90
9450;DHT22;4763;48.370;10.874;2023-03-26T10:13:41;7.90;99.90
9450;DHT22;4763;48.370;10.874;2023-03-26T10:16:44;8.00;99.90
9450;DHT22;4763;48.370;10.874;2023-03-26T10:19:47;8.10;99.90
9450;DHT22;4763;48.370;10.874;2023-03-26T10:22:47;8.10;99.90
9450;DHT22;4763;48.370;10.874;2023-03-26T10:25:47;8.10;99.90
9450;DHT22;4763;48.370;10.874;2023-03-26T10:29:05;8.00;99.90
9450;DHT22;4763;48.370;10.874;2023-03-26T10:32:05;8.00;99.90
9450;DHT22;4763;48.370;10.874;2023-03-26T10:35:05;8.00;99.90
9450;DHT22;4763;48.370;10.874;2023-03-26T10:38:07;8.00;99.90
9450;DHT22;4763;48.370;10.874;2023-03-26T10:41:04;8.00;99.90
9450;DHT22;4763;48.370;10.874;2023-03-26T10:44:14;8.00;99.90
9450;DHT22;4763;48.370;10.874;2023-03-26T10:47:31;8.10;99.90
9450;DHT22;4763;48.370;10.874;2023-03-26T10:50:31;8.10;99.90
9450;DHT22;4763;48.370;10.874;2023-03-26T10:53:34;8.20;99.90
9450;DHT22;4763;48.370;10.874;2023-03-26T10:56:26;8.30;99.90
9450;DHT22;4763;48.370;10.874;2023-03-26T10:59:15;8.40;99.90
9450;DHT22;4763;48.370;10.874;2023-03-26T11:02:24;8.50;99.90
9450;DHT22;4763;48.370;10.874;2023-03-26T11:05:45;8.60;99.90
9450;DHT22;4763;48.370;10.874;2023-03-26T11:08:38;8.70;99.90
9450;DHT22;4763;48.370;10.874;2023-03-26T11:11:29;8.70;99.90
9450;DHT22;4763;48.370;10.874;2023-03-26T11:14:22;8.70;99.90
9450;DHT22;4763;48.370;10.874;2023-03-26T11:17:15;8.70;99.90
9450;DHT22;4763;48.370;10.874;2023-03-26T11:20:09;8.70;99.90
9450;DHT22;4763;48.370;10.874;2023-03-26T11:26:12;8.80;99.90
9450;DHT22;4763;48.370;10.874;2023-03-26T11:29:11;8.80;99.90
9450;DHT22;4763;48.370;10.874;2023-03-26T11:32:06;8.90;99.90
9450;DHT22;4763;48.370;10.874;2023-03-26T11:34:58;8.90;99.90
9450;DHT22;4763;48.370;10.874;2023-03-26T11:37:51;9.00;99.90
9450;DHT22;4763;48.370;10.874;2023-03-26T11:40:42;9.20;99.90
9450;DHT22;4763;48.370;10.874;2023-03-26T11:43:34;9.50;99.90
9450;DHT22;4763;48.370;10.874;2023-03-26T11:46:24;9.60;99.90
9450;DHT22;4763;48.370;10.874;2023-03-26T11:49:13;10.10;99.90
9450;DHT22;4763;48.370;10.874;2023-03-26T11:52:02;10.00;99.90
9450;DHT22;4763;48.370;10.874;2023-03-26T11:54:49;9.90;99.90
9450;DHT22;4763;48.370;10.874;2023-03-26T11:57:40;10.10;99.90
9450;DHT22;4763;48.370;10.874;2023-03-26T12:00:29;10.20;99.90
9450;DHT22;4763;48.370;10.874;2023-03-26T12:03:16;10.50;99.90
9450;DHT22;4763;48.370;10.874;2023-03-26T12:06:21;10.50;99.90
9450;DHT22;4763;48.370;10.874;2023-03-26T12:09:16;10.50;99.90
9450;DHT22;4763;48.370;10.874;2023-03-26T12:12:03;10.60;99.90
9450;DHT22;4763;48.370;10.874;2023-03-26T12:14:53;10.70;99.90
9450;DHT22;4763;48.370;10.874;2023-03-26T12:17:40;10.70;99.90
9450;DHT22;4763;48.370;10.874;2023-03-26T12:20:33;10.50;99.90
9450;DHT22;4763;48.370;10.874;2023-03-26T12:23:43;10.20;99.90
9450;DHT22;4763;48.370;10.874;2023-03-26T12:26:36;9.50;99.90
9450;DHT22;4763;48.370;10.874;2023-03-26T12:29:24;8.50;99.90
9450;DHT22;4763;48.370;10.874;2023-03-26T12:32:14;8.10;99.90
9450;DHT22;4763;48.370;10.874;2023-03-26T12:35:04;8.00;99.90
9450;DHT22;4763;48.370;10.874;2023-03-26T12:37:52;7.90;99.90
9450;DHT22;4763;48.370;10.874;2023-03-26T12:40:40;7.80;99.90
9450;DHT22;4763;48.370;10.874;2023-03-26T12:43:30;7.70;99.90
9450;DHT22;4763;48.370;10.874;2023-03-26T12:46:24;7.70;99.90
9450;DHT22;4763;48.370;10.874;2023-03-26T12:49:13;7.50;99.90
9450;DHT22;4763;48.370;10.874;2023-03-26T12:52:08;7.60;99.90
9450;DHT22;4763;48.370;10.874;2023-03-26T12:55:11;7.30;99.90
9450;DHT22;4763;48.370;10.874;2023-03-26T12:58:09;7.20;99.90
9450;DHT22;4763;48.370;10.874;2023-03-26T13:01:07;7.20;99.90
9450;DHT22;4763;48.370;10.874;2023-03-26T13:04:10;7.30;99.90
9450;DHT22;4763;48.370;10.874;2023-03-26T13:07:07;7.50;99.90
9450;DHT22;4763;48.370;10.874;2023-03-26T13:16:43;7.60;99.90
9450;DHT22;4763;48.370;10.874;2023-03-26T13:19:38;7.20;99.90
9450;DHT22;4763;48.370;10.874;2023-03-26T13:22:36;6.50;99.90
9450;DHT22;4763;48.370;10.874;2023-03-26T13:25:32;6.30;99.90
9450;DHT22;4763;48.370;10.874;2023-03-26T13:28:27;6.40;99.90
9450;DHT22;4763;48.370;10.874;2023-03-26T13:31:22;6.40;99.90
9450;DHT22;4763;48.370;10.874;2023-03-26T13:34:17;6.50;99.90
9450;DHT22;4763;48.370;10.874;2023-03-26T13:37:12;6.80;99.90
9450;DHT22;4763;48.370;10.874;2023-03-26T13:40:22;7.40;99.90
9450;DHT22;4763;48.370;10.874;2023-03-26T13:43:24;7.90;99.90
9450;DHT22;4763;48.370;10.874;2023-03-26T13:46:23;8.30;99.90
9450;DHT22;4763;48.370;10.874;2023-03-26T13:49:13;8.70;99.90
9450;DHT22;4763;48.370;10.874;2023-03-26T13:52:04;9.00;99.90
9450;DHT22;4763;48.370;10.874;2023-03-26T13:54:55;9.10;99.90
9450;DHT22;4763;48.370;10.874;2023-03-26T13:57:50;9.10;99.90
9450;DHT22;4763;48.370;10.874;2023-03-26T14:00:50;9.30;99.90
9450;DHT22;4763;48.370;10.874;2023-03-26T14:03:46;9.40;99.90
9450;DHT22;4763;48.370;10.874;2023-03-26T14:06:41;9.40;99.90
9450;DHT22;4763;48.370;10.874;2023-03-26T14:09:36;9.50;99.90
9450;DHT22;4763;48.370;10.874;2023-03-26T14:12:36;10.00;99.90
9450;DHT22;4763;48.370;10.874;2023-03-26T14:15:33;10.20;99.90
9450;DHT22;4763;48.370;10.874;2023-03-26T14:18:28;10.40;99.90
9450;DHT22;4763;48.370;10.874;2023-03-26T14:21:32;10.50;99.90
9450;DHT22;4763;48.370;10.874;2023-03-26T14:24:45;10.60;99.90
9450;DHT22;4763;48.370;10.874;2023-03-26T14:27:55;10.80;99.90
9450;DHT22;4763;48.370;10.874;2023-03-26T14:31:00;11.30;99.90
9450;DHT22;4763;48.370;10.874;2023-03-26T14:34:10;11.40;99.90
9450;DHT22;4763;48.370;10.874;2023-03-26T14:40:29;12.70;99.90
9450;DHT22;4763;48.370;10.874;2023-03-26T14:43:48;12.70;99.90
9450;DHT22;4763;48.370;10.874;2023-03-26T14:46:51;12.20;99.90
9450;DHT22;4763;48.370;10.874;2023-03-26T14:53:00;11.70;99.90
9450;DHT22;4763;48.370;10.874;2023-03-26T14:56:17;11.50;99.90
9450;DHT22;4763;48.370;10.874;2023-03-26T14:59:43;11.50;99.90
9450;DHT22;4763;48.370;10.874;2023-03-26T15:06:28;11.50;99.90
9450;DHT22;4763;48.370;10.874;2023-03-26T15:10:05;11.80;99.90
9450;DHT22;4763;48.370;10.874;2023-03-26T15:16:44;12.50;99.90
9450;DHT22;4763;48.370;10.874;2023-03-26T15:20:07;12.30;99.90
9450;DHT22;4763;48.370;10.874;2023-03-26T15:23:37;12.00;99.90
9450;DHT22;4763;48.370;10.874;2023-03-26T15:40:46;11.70;99.90
9450;DHT22;4763;48.370;10.874;2023-03-26T15:44:08;11.60;99.90
9450;DHT22;4763;48.370;10.874;2023-03-26T15:47:18;11.60;99.90
9450;DHT22;4763;48.370;10.874;2023-03-26T15:50:35;11.60;99.90
9450;DHT22;4763;48.370;10.874;2023-03-26T15:53:35;11.60;99.90
9450;DHT22;4763;48.370;10.874;2023-03-26T15:56:40;11.70;99.90
9450;DHT22;4763;48.370;10.874;2023-03-26T15:59:46;11.70;99.90
9450;DHT22;4763;48.370;10.874;2023-03-26T16:02:42;12.00;99.90
9450;DHT22;4763;48.370;10.874;2023-03-26T16:05:52;12.00;99.90
9450;DHT22;4763;48.370;10.874;2023-03-26T16:08:52;11.90;99.90
9450;DHT22;4763;48.370;10.874;2023-03-26T16:11:47;11.70;99.90
9450;DHT22;4763;48.370;10.874;2023-03-26T16:14:42;11.50;99.90
9450;DHT22;4763;48.370;10.874;2023-03-26T16:21:01;11.00;99.90
9450;DHT22;4763;48.370;10.874;2023-03-26T16:23:56;11.00;99.90
9450;DHT22;4763;48.370;10.874;2023-03-26T16:27:24;10.80;99.90
9450;DHT22;4763;48.370;10.874;2023-03-26T16:30:15;10.70;99.90
9450;DHT22;4763;48.370;10.874;2023-03-26T16:33:13;10.40;99.90
9450;DHT22;4763;48.370;10.874;2023-03-26T16:36:22;10.20;99.90
9450;DHT22;4763;48.370;10.874;2023-03-26T16:39:18;10.20;99.90
9450;DHT22;4763;48.370;10.874;2023-03-26T16:42:36;10.10;99.90
9450;DHT22;4763;48.370;10.874;2023-03-26T16:45:29;10.00;99.90
9450;DHT22;4763;48.370;10.874;2023-03-26T16:48:24;9.80;99.90
9450;DHT22;4763;48.370;10.874;2023-03-26T16:51:19;9.80;99.90
9450;DHT22;4763;48.370;10.874;2023-03-26T16:54:15;9.70;99.90
9450;DHT22;4763;48.370;10.874;2023-03-26T16:57:12;9.70;99.90
9450;DHT22;4763;48.370;10.874;2023-03-26T17:00:25;9.60;99.90
9450;DHT22;4763;48.370;10.874;2023-03-26T17:03:32;9.40;99.90
9450;DHT22;4763;48.370;10.874;2023-03-26T17:06:44;9.40;99.90
9450;DHT22;4763;48.370;10.874;2023-03-26T17:09:42;9.30;99.90
9450;DHT22;4763;48.370;10.874;2023-03-26T17:12:40;9.30;99.90
9450;DHT22;4763;48.370;10.874;2023-03-26T17:15:35;9.20;99.90
9450;DHT22;4763;48.370;10.874;2023-03-26T17:18:37;9.20;99.90
9450;DHT22;4763;48.370;10.874;2023-03-26T17:21:35;9.10;99.90
9450;DHT22;4763;48.370;10.874;2023-03-26T17:24:41;9.00;99.90
9450;DHT22;4763;48.370;10.874;2023-03-26T17:27:36;8.90;99.90
9450;DHT22;4763;48.370;10.874;2023-03-26T17:30:38;8.70;99.90
9450;DHT22;4763;48.370;10.874;2023-03-26T17:33:31;8.50;99.90
9450;DHT22;4763;48.370;10.874;2023-03-26T17:36:28;8.10;99.90
9450;DHT22;4763;48.370;10.874;2023-03-26T17:39:19;8.00;99.90
9450;DHT22;4763;48.370;10.874;2023-03-26T17:42:16;7.90;99.90
9450;DHT22;4763;48.370;10.874;2023-03-26T17:45:07;7.90;99.90
9450;DHT22;4763;48.370;10.874;2023-03-26T17:48:07;7.80;99.90
9450;DHT22;4763;48.370;10.874;2023-03-26T17:50:58;7.70;99.90
9450;DHT22;4763;48.370;10.874;2023-03-26T17:53:48;7.70;99.90
9450;DHT22;4763;48.370;10.874;2023-03-26T17:56:39;7.70;99.90
9450;DHT22;4763;48.370;10.874;2023-03-26T17:59:28;7.70;99.90
9450;DHT22;4763;48.370;10.874;2023-03-26T18:02:19;7.70;99.90
9450;DHT22;4763;48.370;10.874;2023-03-26T18:05:09;7.70;99.90
9450;DHT22;4763;48.370;10.874;2023-03-26T18:08:25;7.70;99.90
9450;DHT22;4763;48.370;10.874;2023-03-26T18:11:36;7.60;99.90
9450;DHT22;4763;48.370;10.874;2023-03-26T18:14:58;7.70;99.90
9450;DHT22;4763;48.370;10.874;2023-03-26T18:17:47;7.60;99.90
9450;DHT22;4763;48.370;10.874;2023-03-26T18:20:35;7.60;99.90
9450;DHT22;4763;48.370;10.874;2023-03-26T18:23:28;7.60;99.90
9450;DHT22;4763;48.370;10.874;2023-03-26T18:26:18;7.50;99.90
9450;DHT22;4763;48.370;10.874;2023-03-26T18:29:19;7.50;99.90
9450;DHT22;4763;48.370;10.874;2023-03-26T18:32:18;7.50;99.90
9450;DHT22;4763;48.370;10.874;2023-03-26T18:35:14;7.40;99.90
9450;DHT22;4763;48.370;10.874;2023-03-26T18:38:04;7.30;99.90
9450;DHT22;4763;48.370;10.874;2023-03-26T18:40:53;7.30;99.90
9450;DHT22;4763;48.370;10.874;2023-03-26T18:43:41;7.30;99.90
9450;DHT22;4763;48.370;10.874;2023-03-26T18:46:28;7.30;99.90
9450;DHT22;4763;48.370;10.874;2023-03-26T18:49:17;7.10;99.90
9450;DHT22;4763;48.370;10.874;2023-03-26T18:52:05;7.10;99.90
9450;DHT22;4763;48.370;10.874;2023-03-26T18:54:53;7.00;99.90
9450;DHT22;4763;48.370;10.874;2023-03-26T18:57:41;7.00;99.90
9450;DHT22;4763;48.370;10.874;2023-03-26T19:00:28;7.00;99.90
9450;DHT22;4763;48.370;10.874;2023-03-26T19:03:19;7.00;99.90
9450;DHT22;4763;48.370;10.874;2023-03-26T19:06:10;7.00;99.90
9450;DHT22;4763;48.370;10.874;2023-03-26T19:08:58;7.00;99.90
9450;DHT22;4763;48.370;10.874;2023-03-26T19:11:47;7.10;99.90
9450;DHT22;4763;48.370;10.874;2023-03-26T19:14:51;7.00;99.90
9450;DHT22;4763;48.370;10.874;2023-03-26T19:17:41;7.00;99.90
9450;DHT22;4763;48.370;10.874;2023-03-26T19:20:34;7.00;99.90
9450;DHT22;4763;48.370;10.874;2023-03-26T19:23:29;7.00;99.90
9450;DHT22;4763;48.370;10.874;2023-03-26T19:26:17;7.00;99.90
9450;DHT22;4763;48.370;10.874;2023-03-26T19:29:05;7.00;99.90
9450;DHT22;4763;48.370;10.874;2023-03-26T19:31:52;6.90;99.90
9450;DHT22;4763;48.370;10.874;2023-03-26T19:34:39;7.00;99.90
9450;DHT22;4763;48.370;10.874;2023-03-26T19:37:28;7.00;99.90
9450;DHT22;4763;48.370;10.874;2023-03-26T19:40:19;6.90;99.90
9450;DHT22;4763;48.370;10.874;2023-03-26T19:43:14;7.00;99.90
9450;DHT22;4763;48.370;10.874;2023-03-26T19:46:01;6.80;99.90
9450;DHT22;4763;48.370;10.874;2023-03-26T19:48:50;6.90;99.90